Aérodrome :
LOGIN :

S'inscrire | Disclaimer

   EN    FR    IT 

 










Légende :    VFR   VFR Marginal   IFR   IFR Intensif   IFR Très Intensif
Visi : 
Plafond : 
>= 8 km
>= 3000ft
5 à 8 km
1000 à 3000 ft
1500m à 5 km
500 à 1000 ft
800 à 1500m
200 à 500 ft
< 800m
< 200 ft
Symboles :   Orages  Brouillard  Fortes neiges  Fortes précipitations  Vent > 20 kt
SIGMETs :   Divers  Orages  Givrage  Turbulence  Onde Orograph.  Cendres Volcan.







- Altitude de l'aérodrome : 245 ft
- Code IATA : BIQ
- Voir les cartes d'approche


LFBZ - Biarritz

DERNIER METAR :
  • 281000Z AUTO 27008KT 220V300 9999 SCT054 BKN100 BKN180 24/15 Q1005 NOSIG

METARs EXPIRÉS :
  • 280930Z AUTO VRB03KT 9999 FEW041 BKN096 BKN110 23/15 Q1005 NOSIG
  • 280900Z AUTO VRB03KT CAVOK 23/15 Q1004 NOSIG
  • 280830Z AUTO 18005KT 120V270 CAVOK 22/16 Q1004 TEMPO 27015G25KT 4000 SHRA BKN014 BKN040TCU
  • 280800Z AUTO VRB04KT 9999 FEW054 SCT240 21/14 Q1004 NOSIG
  • 280730Z AUTO 18005KT 120V250 CAVOK 20/15 Q1005 NOSIG

TAF AMD TAF LFBZ
Valide du 28 à 08h jusqu'au 29 à 06h UTC


280843Z 2808/2906 24008KT CAVOK
TEMPO 2812/2906 27015G25KT 4000 SHRA BKN014 BKN040TCU
PROB40
TEMPO 2813/2906 27020G40KT 3000 TSRA BKN014 BKN040CB
Pas de NOTAMs connus pour ce terrain.
1 SIGMET publié pour la FIR Bordeaux (LFBB) :
 
Orages noyés dans la masse
LFBB SIGMET 2 VALID 281000/281200 LFPW
LFBB BORDEAUX FIR/UIR EMBD TS FCST WI N4300 W00145 - N4615 W00130 - N4600 E00015 - N4300 W00115 - N4300 W00130 TOP FL310 MOV E 25KT NC=



MET'MAP, la Météo Aéronautique d'un coup d'oeil ! - Copyright ORBIFLY Décembre 2007 - Disclaimer

ORBIFLY MET'MAP TEAM :

Programmation & Développement : Alexandra Zaïnal
Conception & Développement : Baudouin d'Aumeries
Co-Programmation & Développement : Marc-Olivier Méhu
Soutien technique & logistique : Manuel Goepfert

Contact : metmap@orbifly.com




SOURCES & CREDITS :

   NOAA